createdAt,value
2022-12-11T00:03:48.727Z,-0.50
2022-12-11T00:08:53.490Z,-0.53
2022-12-11T00:13:57.667Z,-0.55
2022-12-11T00:19:00.473Z,-0.73
2022-12-11T00:24:03.264Z,-0.83
2022-12-11T00:29:08.294Z,-0.63
2022-12-11T00:34:12.089Z,-0.54
2022-12-11T00:39:14.925Z,-0.61
2022-12-11T00:44:19.315Z,-0.62
2022-12-11T00:49:22.098Z,-0.58
2022-12-11T00:54:24.889Z,-0.52
2022-12-11T00:59:29.432Z,-0.50
2022-12-11T01:04:32.228Z,-0.51
2022-12-11T01:09:52.305Z,-0.47
2022-12-11T01:14:56.450Z,-0.42
2022-12-11T01:19:59.378Z,-0.47
2022-12-11T01:25:02.196Z,-0.60
2022-12-11T01:30:09.338Z,-0.56
2022-12-11T01:35:13.449Z,-0.58
2022-12-11T01:40:18.332Z,-0.63
2022-12-11T01:45:36.428Z,-0.59
2022-12-11T01:50:43.182Z,-0.68
2022-12-11T01:55:47.177Z,-0.64
2022-12-11T02:00:53.195Z,-0.79
2022-12-11T02:05:56.147Z,-0.75
2022-12-11T02:11:08.052Z,-0.62
2022-12-11T02:16:20.350Z,-0.64
2022-12-11T02:21:27.819Z,-0.70
2022-12-11T02:26:56.788Z,-0.59
2022-12-11T02:32:05.970Z,-0.69
2022-12-11T02:37:13.276Z,-0.68
2022-12-11T02:42:17.232Z,-0.60
2022-12-11T02:47:22.438Z,-0.56
2022-12-11T02:52:27.259Z,-0.50
2022-12-11T02:57:36.043Z,-0.45
2022-12-11T03:02:42.183Z,-0.48
2022-12-11T03:07:45.985Z,-0.43
2022-12-11T03:12:53.757Z,-0.46
2022-12-11T03:18:05.216Z,-0.44
2022-12-11T03:23:21.135Z,-0.39
2022-12-11T03:28:30.474Z,-0.37
2022-12-11T03:33:38.642Z,-0.48
2022-12-11T03:38:49.078Z,-0.45
2022-12-11T03:43:55.475Z,-0.50
2022-12-11T03:49:02.810Z,-0.64
2022-12-11T03:54:06.739Z,-0.56
2022-12-11T03:59:09.875Z,-0.59
2022-12-11T04:04:14.173Z,-0.60
2022-12-11T04:09:16.999Z,-0.59
2022-12-11T04:14:37.089Z,-0.70
2022-12-11T04:19:58.782Z,-0.77
2022-12-11T04:25:01.959Z,-0.79
2022-12-11T04:30:06.476Z,-0.86
2022-12-11T04:35:12.536Z,-0.85
2022-12-11T04:40:18.652Z,-0.83
2022-12-11T04:45:21.583Z,-0.83
2022-12-11T04:50:25.748Z,-0.84
2022-12-11T04:55:28.481Z,-0.77
2022-12-11T05:00:31.267Z,-0.74
2022-12-11T05:05:35.551Z,-0.77
2022-12-11T05:10:38.296Z,-0.77
2022-12-11T05:15:41.395Z,-0.74
2022-12-11T05:20:45.805Z,-0.65
2022-12-11T05:25:53.001Z,-0.64
2022-12-11T05:30:58.945Z,-0.59
2022-12-11T05:36:03.223Z,-0.63
2022-12-11T05:41:07.804Z,-0.59
2022-12-11T05:46:14.118Z,-0.48
2022-12-11T05:51:19.888Z,-0.42
2022-12-11T05:56:26.221Z,-0.40
2022-12-11T06:01:31.833Z,-0.52
2022-12-11T06:06:36.686Z,-0.51
2022-12-11T06:11:39.503Z,-0.52
2022-12-11T06:16:42.417Z,-0.52
2022-12-11T06:21:48.802Z,-0.49
2022-12-11T06:26:51.579Z,-0.44
2022-12-11T06:31:54.440Z,-0.36
2022-12-11T06:36:58.755Z,-0.51
2022-12-11T06:42:01.504Z,-0.56
2022-12-11T06:47:05.377Z,-0.68
2022-12-11T06:52:12.504Z,-0.69
2022-12-11T06:57:19.277Z,-0.67
2022-12-11T07:02:22.218Z,-1.02
2022-12-11T07:07:26.535Z,-0.66
2022-12-11T07:12:29.318Z,-0.46
2022-12-11T07:17:32.642Z,-0.47
2022-12-11T07:22:40.343Z,-0.57
2022-12-11T07:27:46.060Z,-0.59
2022-12-11T07:32:48.830Z,-0.72
2022-12-11T07:37:52.965Z,-0.98
2022-12-11T07:42:55.737Z,-0.84
2022-12-11T07:47:59.051Z,-0.88
2022-12-11T07:53:03.146Z,-0.79
2022-12-11T07:58:06.001Z,-1.00
2022-12-11T08:03:08.921Z,-1.15
2022-12-11T08:08:13.126Z,-0.61
2022-12-11T08:13:16.177Z,-0.68
2022-12-11T08:18:19.092Z,-0.77
2022-12-11T08:23:23.265Z,-0.74
2022-12-11T08:28:27.305Z,-0.87
2022-12-11T08:33:30.228Z,-0.70
2022-12-11T08:38:34.657Z,-0.42
2022-12-11T08:43:37.699Z,-0.29
2022-12-11T08:48:42.475Z,-0.39
2022-12-11T08:53:46.604Z,-0.76
2022-12-11T08:58:49.378Z,-1.19
2022-12-11T09:03:53.525Z,-0.53
2022-12-11T09:09:00.206Z,-0.30
2022-12-11T09:14:07.547Z,-0.16
2022-12-11T09:19:14.536Z,-0.15
2022-12-11T09:24:18.672Z,-0.07
2022-12-11T09:29:21.536Z,-0.11
2022-12-11T09:34:29.174Z,-0.03
2022-12-11T09:39:33.749Z,0.01
2022-12-11T09:44:43.235Z,0.09
2022-12-11T09:49:48.113Z,0.05
2022-12-11T09:54:56.918Z,0.06
2022-12-11T10:00:17.336Z,0.11
2022-12-11T10:05:29.193Z,0.02
2022-12-11T10:10:41.804Z,-0.15
2022-12-11T10:15:50.660Z,-0.09
2022-12-11T10:20:54.913Z,-0.32
2022-12-11T10:26:06.885Z,-0.24
2022-12-11T10:31:18.174Z,0.01
2022-12-11T10:36:28.869Z,-0.05
2022-12-11T10:41:39.886Z,0.04
2022-12-11T10:46:42.735Z,-0.20
2022-12-11T10:51:45.720Z,-0.30
2022-12-11T10:56:51.549Z,-0.24
2022-12-11T11:01:55.079Z,-0.51
2022-12-11T11:07:12.660Z,-0.69
2022-12-11T11:12:22.729Z,-0.39
2022-12-11T11:17:26.895Z,-0.30
2022-12-11T11:22:33.568Z,-0.29
2022-12-11T11:27:45.132Z,-0.51
2022-12-11T11:32:48.021Z,-0.47
2022-12-11T11:37:59.347Z,-0.64
2022-12-11T11:43:17.369Z,-0.65
2022-12-11T11:48:37.535Z,-0.82
2022-12-11T11:53:41.666Z,-0.44
2022-12-11T11:58:56.145Z,-1.02
2022-12-11T12:03:59.624Z,-0.60
2022-12-11T12:09:16.041Z,-0.77
2022-12-11T12:19:58.024Z,-0.46
2022-12-11T12:25:03.560Z,-0.44
2022-12-11T12:30:17.387Z,-0.56
2022-12-11T12:35:36.487Z,-0.45
2022-12-11T12:40:49.593Z,-0.38
2022-12-11T12:46:07.429Z,-0.62
2022-12-11T12:51:14.833Z,-0.83
2022-12-11T12:56:18.198Z,-0.40
2022-12-11T13:01:23.633Z,-0.27
2022-12-11T13:06:32.149Z,-0.33
2022-12-11T13:11:37.038Z,-0.18
2022-12-11T13:16:44.064Z,-0.18
2022-12-11T13:21:57.092Z,-0.08
2022-12-11T13:27:10.244Z,-0.02
2022-12-11T13:32:25.528Z,0.00
2022-12-11T13:37:34.660Z,-0.01
2022-12-11T13:42:45.415Z,0.02
2022-12-11T13:47:49.675Z,0.08
2022-12-11T13:52:56.142Z,0.01
2022-12-11T13:57:59.504Z,0.06
2022-12-11T14:03:08.283Z,0.11
2022-12-11T14:08:13.435Z,0.07
2022-12-11T14:13:23.333Z,0.04
2022-12-11T14:18:30.411Z,-0.00
2022-12-11T14:23:34.175Z,-0.01
2022-12-11T14:28:42.584Z,-0.01
2022-12-11T14:33:50.284Z,-0.07
2022-12-11T14:38:58.523Z,-0.03
2022-12-11T14:44:05.407Z,-0.08
2022-12-11T14:49:21.276Z,-0.13
2022-12-11T14:54:30.534Z,-0.11
2022-12-11T14:59:40.310Z,-0.14
2022-12-11T15:04:45.576Z,-0.34
2022-12-11T15:09:48.399Z,-0.33
2022-12-11T15:14:53.043Z,-0.28
2022-12-11T15:20:02.500Z,-0.22
2022-12-11T15:25:06.204Z,-0.17
2022-12-11T15:30:28.198Z,-0.19
2022-12-11T15:35:32.696Z,-0.18
2022-12-11T15:40:35.525Z,-0.32
2022-12-11T15:45:38.334Z,-0.30
2022-12-11T15:50:42.753Z,-0.24
2022-12-11T15:55:45.848Z,-0.29
2022-12-11T16:00:48.615Z,-0.28
2022-12-11T16:05:53.905Z,-0.38
2022-12-11T16:10:57.337Z,-0.47
2022-12-11T16:16:00.198Z,-0.41
2022-12-11T16:21:07.273Z,-0.34
2022-12-11T16:26:10.280Z,-0.51
2022-12-11T16:31:13.522Z,-0.66
2022-12-11T16:36:19.692Z,-0.68
2022-12-11T16:41:23.775Z,-0.70
2022-12-11T16:46:26.587Z,-0.87
2022-12-11T16:51:30.765Z,-0.74
2022-12-11T16:56:34.017Z,-0.79
2022-12-11T17:01:36.968Z,-0.94
2022-12-11T17:06:41.293Z,-0.79
2022-12-11T17:11:44.109Z,-0.64
2022-12-11T17:16:48.109Z,-0.70
2022-12-11T17:21:54.098Z,-0.69
2022-12-11T17:26:56.933Z,-0.67
2022-12-11T17:31:59.828Z,-0.59
2022-12-11T17:37:04.014Z,-0.60
2022-12-11T17:42:07.060Z,-0.50
2022-12-11T17:47:11.932Z,-0.43
2022-12-11T17:52:16.065Z,-0.36
2022-12-11T17:57:18.984Z,-0.64
2022-12-11T18:02:21.972Z,-0.61
2022-12-11T18:07:26.484Z,-0.45
2022-12-11T18:12:30.936Z,-0.53
2022-12-11T18:17:34.358Z,-0.51
2022-12-11T18:22:38.742Z,-0.43
2022-12-11T18:27:42.619Z,-0.36
2022-12-11T18:32:46.182Z,-0.29
2022-12-11T18:37:50.320Z,-0.26
2022-12-11T18:42:53.183Z,-0.45
2022-12-11T18:47:56.689Z,-0.37
2022-12-11T18:53:03.217Z,-0.35
2022-12-11T18:58:06.370Z,-0.31
2022-12-11T19:03:10.005Z,-0.27
2022-12-11T19:08:16.220Z,-0.22
2022-12-11T19:13:19.076Z,-0.28
2022-12-11T19:18:21.910Z,-0.30
2022-12-11T19:23:26.044Z,-0.29
2022-12-11T19:28:28.864Z,-0.31
2022-12-11T19:33:31.648Z,-0.34
2022-12-11T19:38:35.866Z,-0.33
2022-12-11T19:43:38.703Z,-0.24
2022-12-11T19:48:41.915Z,-0.26
2022-12-11T19:53:47.756Z,-0.29
2022-12-11T19:58:50.904Z,-0.36
2022-12-11T20:03:54.290Z,-0.29
2022-12-11T20:08:59.378Z,-0.25
2022-12-11T20:14:02.206Z,-0.23
2022-12-11T20:19:05.448Z,-0.24
2022-12-11T20:24:10.341Z,-0.26
2022-12-11T20:29:13.539Z,-0.29
2022-12-11T20:34:16.464Z,-0.30
2022-12-11T20:39:20.641Z,-0.49
2022-12-11T20:44:23.472Z,-0.52
2022-12-11T20:49:26.249Z,-0.46
2022-12-11T20:54:30.445Z,-0.44
2022-12-11T20:59:33.346Z,-0.52
2022-12-11T21:04:39.722Z,-0.64
2022-12-11T21:09:43.987Z,-0.56
2022-12-11T21:14:46.747Z,-0.47
2022-12-11T21:19:50.430Z,-0.43
2022-12-11T21:24:54.521Z,-0.37
2022-12-11T21:29:57.428Z,-0.33
2022-12-11T21:35:00.182Z,-0.35
2022-12-11T21:40:04.947Z,-0.29
2022-12-11T21:50:31.527Z,-0.34
2022-12-11T21:55:35.632Z,-0.50
2022-12-11T22:00:38.941Z,-0.53
2022-12-11T22:05:41.730Z,-0.51
2022-12-11T22:10:45.911Z,-0.52
2022-12-11T22:15:48.665Z,-0.59
2022-12-11T22:20:51.571Z,-0.61
2022-12-11T22:25:56.331Z,-0.60
2022-12-11T22:30:59.359Z,-0.60
2022-12-11T22:36:02.838Z,-0.53
2022-12-11T22:41:12.925Z,-0.53
2022-12-11T22:46:17.477Z,-0.53
2022-12-11T22:51:20.438Z,-0.52
2022-12-11T22:56:24.565Z,-0.54
2022-12-11T23:01:28.972Z,-0.61
2022-12-11T23:06:31.788Z,-0.64
2022-12-11T23:11:38.376Z,-0.67
2022-12-11T23:16:41.788Z,-0.66
2022-12-11T23:21:44.829Z,-0.58
2022-12-11T23:26:49.093Z,-0.56
2022-12-11T23:31:51.832Z,-0.55
2022-12-11T23:36:54.672Z,-0.52
2022-12-11T23:41:59.013Z,-0.61
2022-12-11T23:47:01.869Z,-0.67
2022-12-11T23:52:04.743Z,-0.72
2022-12-11T23:57:08.857Z,-0.82
